Time;durP1;ratioP1;P1;durP2;ratioP2;P2;SDS_P1;SDS_P2;PMS_P1;PMS_P2;Temp;Humidity;BMP_temperature;BMP_pressure;BME280_temperature;BME280_humidity;BME280_pressure;Samples;Min_cycle;Max_cycle;Signal;HPM_P1;HPM_P2
2023/09/02 00:01:43;;;;;;;1.05;0.70;;;;;;;16.93;100.00;97908.16;1225562;75;2913807;-67
2023/09/02 00:04:16;;;;;;;0.60;0.60;;;;;;;17.03;100.00;97903.81;1226138;75;2916612;-67
2023/09/02 00:06:49;;;;;;;0.60;0.60;;;;;;;17.02;100.00;97907.09;1226422;75;2920206;-65
2023/09/02 00:09:22;;;;;;;1.00;0.90;;;;;;;16.85;100.00;97904.44;1226532;75;2912758;-69
2023/09/02 00:14:30;;;;;;;1.00;0.90;;;;;;;16.71;100.00;97900.72;1225448;75;2920419;-66
2023/09/02 00:17:03;;;;;;;0.80;0.70;;;;;;;16.82;100.00;97902.69;1226621;75;2909513;-67
2023/09/02 00:19:37;;;;;;;0.60;0.50;;;;;;;16.90;100.00;97906.41;1227195;75;2915811;-69
2023/09/02 00:22:10;;;;;;;0.60;0.60;;;;;;;16.82;100.00;97902.69;1226080;75;2919434;-69
2023/09/02 00:24:43;;;;;;;0.60;0.60;;;;;;;16.82;100.00;97902.69;1226545;75;2913137;-66
2023/09/02 00:27:15;;;;;;;0.50;0.45;;;;;;;16.87;100.00;97903.94;1226857;75;2909769;-67
2023/09/02 00:29:51;;;;;;;0.75;0.60;;;;;;;16.75;100.00;97905.97;1225562;75;2916239;-68
2023/09/02 00:32:25;;;;;;;0.70;0.70;;;;;;;16.69;100.00;97903.25;1225187;75;2926938;-66
2023/09/02 00:34:58;;;;;;;0.70;0.65;;;;;;;16.72;100.00;97902.22;1225620;75;2919349;-70
2023/09/02 00:37:30;;;;;;;0.60;0.55;;;;;;;16.74;100.00;97902.47;1226001;75;2892328;-68
2023/09/02 00:40:03;;;;;;;0.80;0.70;;;;;;;16.72;100.00;97905.00;1223878;75;3019616;-68
2023/09/02 00:42:37;;;;;;;1.15;0.60;;;;;;;16.69;100.00;97899.72;1226577;75;2918312;-67
2023/09/02 00:45:15;;;;;;;0.50;0.50;;;;;;;16.63;100.00;97896.25;1226296;75;2917268;-67
2023/09/02 00:47:49;;;;;;;0.60;0.60;;;;;;;16.66;100.00;97895.97;1225952;75;2918354;-68
2023/09/02 00:50:23;;;;;;;0.70;0.70;;;;;;;16.58;100.00;97893.00;1226298;75;2949402;-69
2023/09/02 00:52:56;;;;;;;0.60;0.60;;;;;;;16.60;100.00;97895.25;1225509;75;2920592;-66
2023/09/02 00:55:28;;;;;;;0.70;0.70;;;;;;;16.55;100.00;97887.75;1225219;75;2917909;-69
2023/09/02 00:58:01;;;;;;;0.60;0.60;;;;;;;16.53;100.00;97895.81;1225769;75;2918137;-65
2023/09/02 01:00:37;;;;;;;0.60;0.60;;;;;;;16.54;100.00;97889.00;1225733;75;2914068;-68
2023/09/02 01:03:10;;;;;;;1.10;0.85;;;;;;;16.43;100.00;97884.28;1225573;75;2918464;-69
2023/09/02 01:05:43;;;;;;;0.60;0.60;;;;;;;16.41;100.00;97886.81;1225300;75;2917363;-66
2023/09/02 01:08:19;;;;;;;0.70;0.55;;;;;;;16.45;100.00;97889.28;1224989;75;2924094;-68
2023/09/02 01:10:52;;;;;;;1.00;0.80;;;;;;;16.36;100.00;97879.31;1225086;75;2922891;-65
2023/09/02 01:13:25;;;;;;;0.60;0.60;;;;;;;16.39;100.00;97876.25;1225013;75;2924703;-68
2023/09/02 01:16:00;;;;;;;0.90;0.60;;;;;;;16.36;100.00;97879.31;1225406;75;2920963;-65
2023/09/02 01:18:33;;;;;;;0.50;0.50;;;;;;;16.36;100.00;97873.78;1225309;75;2918405;-67
2023/09/02 01:21:40;;;;;;;0.80;0.80;;;;;;;16.35;100.00;97880.56;1224920;75;2919190;-68
2023/09/02 01:25:04;;;;;;;0.75;0.75;;;;;;;16.36;100.00;97876.53;1225706;75;2918377;-66
2023/09/02 01:27:46;;;;;;;2.10;0.60;;;;;;;16.37;100.00;97880.78;1224678;75;2918967;-67
2023/09/02 01:30:22;;;;;;;0.80;0.80;;;;;;;16.24;100.00;97884.13;1224739;75;2912783;-66
2023/09/02 01:32:58;;;;;;;0.80;0.80;;;;;;;16.30;100.00;97884.84;1224751;75;2922466;-69
2023/09/02 01:35:37;;;;;;;1.05;0.90;;;;;;;16.15;100.00;97879.63;1224545;75;2924823;-66
2023/09/02 01:38:11;;;;;;;0.80;0.80;;;;;;;16.26;100.00;97881.59;1225124;75;2924209;-65
2023/09/02 01:40:46;;;;;;;1.00;0.90;;;;;;;16.08;100.00;97882.91;1225209;75;2926151;-67
2023/09/02 01:43:23;;;;;;;1.40;1.10;;;;;;;16.05;100.00;97881.19;1223937;75;2926887;-67
2023/09/02 01:45:56;;;;;;;1.30;1.20;;;;;;;15.97;100.00;97883.72;1225265;75;2924576;-66
2023/09/02 01:48:29;;;;;;;1.10;1.00;;;;;;;16.10;100.00;97876.91;1224167;75;2922412;-67
2023/09/02 01:51:03;;;;;;;1.70;1.00;;;;;;;16.02;100.00;97896.00;1225445;75;2922117;-65
2023/09/02 01:53:36;;;;;;;1.00;0.90;;;;;;;16.12;100.00;97888.19;1224500;75;2918498;-66
2023/09/02 01:56:10;;;;;;;1.05;0.95;;;;;;;16.09;100.00;97884.44;1224353;75;2922019;-67
2023/09/02 01:58:45;;;;;;;1.15;1.00;;;;;;;16.00;100.00;97889.50;1225202;75;2922740;-70
2023/09/02 02:01:18;;;;;;;1.50;1.10;;;;;;;15.98;100.00;97892.75;1225065;75;2926515;-67
2023/09/02 02:03:58;;;;;;;1.20;1.10;;;;;;;16.01;100.00;97888.97;1225532;75;2916343;-65
2023/09/02 02:06:33;;;;;;;0.85;0.85;;;;;;;15.96;100.00;97890.50;1225567;75;2918776;-65
2023/09/02 02:09:10;;;;;;;1.00;0.90;;;;;;;16.01;100.00;97891.72;1225055;75;2922210;-67
2023/09/02 02:11:43;;;;;;;1.50;1.00;;;;;;;15.85;100.00;97895.28;1225909;75;2913293;-68
2023/09/02 02:14:20;;;;;;;1.30;1.00;;;;;;;15.73;100.00;97898.09;1224951;75;2923028;-67
2023/09/02 02:16:52;;;;;;;1.35;1.25;;;;;;;15.79;100.00;97898.06;1225356;75;2915573;-65
2023/09/02 02:19:25;;;;;;;1.10;1.00;;;;;;;15.72;100.00;97901.34;1224702;75;2940462;-68
2023/09/02 02:21:58;;;;;;;1.25;1.15;;;;;;;15.58;100.00;97903.09;1224384;75;2928075;-65
2023/09/02 02:24:31;;;;;;;1.70;1.20;;;;;;;15.55;100.00;97898.59;1224273;75;2930960;-66
2023/09/02 02:27:03;;;;;;;2.05;1.50;;;;;;;15.66;100.00;97911.63;1224248;75;2926528;-66
2023/09/02 02:29:39;;;;;;;1.40;1.25;;;;;;;15.58;100.00;97902.34;1224978;75;2922997;-66
2023/09/02 02:32:11;;;;;;;1.00;0.90;;;;;;;15.65;100.00;97907.34;1224608;75;2926345;-67
2023/09/02 02:34:44;;;;;;;1.75;1.10;;;;;;;15.60;100.00;97897.81;1225009;75;2917683;-68
2023/09/02 02:37:16;;;;;;;0.75;0.75;;;;;;;15.67;100.00;97900.06;1224731;75;2933165;-67
2023/09/02 02:39:49;;;;;;;1.05;0.95;;;;;;;15.72;100.00;97901.34;1211483;75;3848452;-67
2023/09/02 02:42:22;;;;;;;0.80;0.80;;;;;;;15.48;100.00;97912.88;1225519;75;2921831;-67
2023/09/02 02:44:58;;;;;;;0.80;0.80;;;;;;;15.59;100.00;97907.38;1224928;75;2921025;-69
2023/09/02 02:47:31;;;;;;;0.70;0.70;;;;;;;15.62;100.00;97906.34;1224959;75;2923929;-66
2023/09/02 02:50:03;;;;;;;0.80;0.70;;;;;;;15.50;100.00;97904.84;1225070;75;2924041;-65
2023/09/02 02:52:36;;;;;;;1.50;1.00;;;;;;;15.37;100.00;97901.84;1224427;75;2928699;-65
2023/09/02 02:55:10;;;;;;;1.65;0.90;;;;;;;15.50;100.00;97908.38;1224645;75;2922895;-65
2023/09/02 02:57:43;;;;;;;1.20;1.00;;;;;;;15.37;100.00;97907.38;1224577;75;2926496;-66
2023/09/02 03:00:19;;;;;;;1.25;0.95;;;;;;;15.36;100.00;97916.91;1223969;75;2919331;-66
2023/09/02 03:02:54;;;;;;;1.15;1.05;;;;;;;15.30;100.00;97914.91;1225585;75;2918604;-67
2023/09/02 03:05:26;;;;;;;1.40;0.75;;;;;;;15.42;100.00;97909.41;1224892;75;2924427;-66
2023/09/02 03:07:59;;;;;;;1.50;0.80;;;;;;;15.38;100.00;97911.66;1224154;75;2924090;-66
2023/09/02 03:10:31;;;;;;;0.80;0.80;;;;;;;15.27;100.00;97915.91;1224502;75;2924923;-64
2023/09/02 03:13:04;;;;;;;1.10;1.00;;;;;;;15.19;100.00;97908.63;1225023;75;2919051;-70
2023/09/02 03:15:40;;;;;;;1.00;0.90;;;;;;;15.22;100.00;97913.88;1224771;75;2928813;-66
2023/09/02 03:18:12;;;;;;;0.90;0.90;;;;;;;15.30;100.00;97914.16;1224803;75;2948240;-70
2023/09/02 03:20:45;;;;;;;0.65;0.65;;;;;;;15.25;100.00;97912.13;1225506;75;2918818;-66
2023/09/02 03:23:17;;;;;;;0.65;0.60;;;;;;;15.29;100.00;97921.66;1224555;75;2920559;-65
2023/09/02 03:25:50;;;;;;;1.15;0.70;;;;;;;15.27;100.00;97923.41;1225208;75;2920207;-69
2023/09/02 03:28:23;;;;;;;0.80;0.75;;;;;;;15.22;100.00;97922.16;1225875;75;2925658;-66
2023/09/02 03:31:08;;;;;;;0.50;0.50;;;;;;;15.21;100.00;97920.66;1224631;75;2916252;-67
2023/09/02 03:33:41;;;;;;;0.70;0.70;;;;;;;15.10;100.00;97926.16;1225808;75;2921294;-67
2023/09/02 03:36:19;;;;;;;0.60;0.60;;;;;;;15.09;100.00;97928.16;1225225;75;2922496;-66
2023/09/02 03:38:52;;;;;;;0.70;0.70;;;;;;;15.01;100.00;97937.44;1226362;75;2918426;-67
2023/09/02 03:41:25;;;;;;;0.90;0.90;;;;;;;14.87;100.00;97939.91;1224987;75;2913166;-65
2023/09/02 03:43:57;;;;;;;0.80;0.80;;;;;;;14.89;100.00;97936.69;1224584;75;2918233;-67
2023/09/02 03:46:32;;;;;;;2.75;1.20;;;;;;;14.86;100.00;97948.69;1224978;75;2918309;-66
2023/09/02 03:49:05;;;;;;;1.30;1.00;;;;;;;14.86;100.00;97941.19;1224896;75;2926844;-67
2023/09/02 03:51:38;;;;;;;3.40;1.10;;;;;;;14.82;100.00;97951.69;1224835;75;2920557;-66
2023/09/02 03:54:11;;;;;;;1.80;1.40;;;;;;;14.69;100.00;97954.16;1226003;75;2925840;-65
2023/09/02 03:56:43;;;;;;;1.50;1.10;;;;;;;14.86;100.00;97954.19;1225926;75;2918499;-66
2023/09/02 03:59:16;;;;;;;0.90;0.90;;;;;;;14.90;100.00;97949.94;1225730;75;2916189;-67
2023/09/02 04:01:54;;;;;;;1.60;0.80;;;;;;;14.94;100.00;97946.22;1225248;75;2918563;-67
2023/09/02 04:04:26;;;;;;;1.10;1.00;;;;;;;14.81;100.00;97954.94;1226374;75;2917446;-65
2023/09/02 04:06:59;;;;;;;0.90;0.90;;;;;;;14.72;100.00;97955.94;1224009;75;2916742;-66
2023/09/02 04:09:33;;;;;;;2.10;0.95;;;;;;;14.86;100.00;97954.97;1225050;75;2917510;-68
2023/09/02 04:12:06;;;;;;;0.90;0.90;;;;;;;14.90;100.00;97955.47;1225117;75;2926009;-68
2023/09/02 04:14:39;;;;;;;0.90;0.90;;;;;;;14.86;100.00;97952.22;1225225;75;2922985;-66
2023/09/02 04:17:14;;;;;;;0.85;0.85;;;;;;;14.81;100.00;97961.19;1225398;75;2923876;-65
2023/09/02 04:19:46;;;;;;;1.00;0.90;;;;;;;14.89;100.00;97959.47;1225651;75;2925406;-67
2023/09/02 04:22:19;;;;;;;1.30;0.70;;;;;;;14.85;100.00;97955.44;1224680;75;2921457;-67
2023/09/02 04:24:51;;;;;;;0.80;0.80;;;;;;;14.87;100.00;97961.97;1224915;75;2922873;-66
2023/09/02 04:27:24;;;;;;;1.10;0.85;;;;;;;14.93;100.00;97969.50;1225546;75;2916859;-68
2023/09/02 04:29:57;;;;;;;1.00;1.00;;;;;;;14.97;100.00;97970.03;1224940;75;2923996;-66
2023/09/02 04:32:32;;;;;;;1.10;1.00;;;;;;;14.82;100.00;97979.25;1224420;75;2921415;-65
2023/09/02 04:35:05;;;;;;;1.40;1.30;;;;;;;14.76;100.00;97986.00;1225906;75;2921946;-69
2023/09/02 04:37:37;;;;;;;0.90;0.90;;;;;;;14.78;100.00;97983.50;1224483;75;2930736;-67
2023/09/02 04:40:13;;;;;;;1.20;1.10;;;;;;;14.78;100.00;97991.75;1225016;75;2921808;-67
2023/09/02 04:42:46;;;;;;;1.55;1.05;;;;;;;14.90;100.00;97998.81;1225535;75;2923117;-67
2023/09/02 04:45:19;;;;;;;1.20;1.10;;;;;;;14.86;100.00;97990.78;1224765;75;2918568;-65
2023/09/02 04:47:54;;;;;;;1.10;1.00;;;;;;;14.98;100.00;97988.06;1224743;75;2923014;-65
2023/09/02 04:50:27;;;;;;;1.10;1.00;;;;;;;15.05;100.00;98001.34;1224444;75;2926848;-65
2023/09/02 04:53:00;;;;;;;1.20;0.90;;;;;;;15.07;100.00;97990.59;1224919;75;2923958;-66
2023/09/02 04:55:33;;;;;;;0.80;0.80;;;;;;;15.12;100.00;97998.13;1225587;75;2919092;-64
2023/09/02 04:58:07;;;;;;;0.90;0.90;;;;;;;15.16;100.00;98006.91;1224853;75;2921878;-66
2023/09/02 05:00:40;;;;;;;1.05;0.95;;;;;;;15.13;100.00;98007.91;1224766;75;2929808;-65
2023/09/02 05:03:15;;;;;;;1.60;1.35;;;;;;;15.15;100.00;98007.41;1225164;75;2922087;-68
2023/09/02 05:05:48;;;;;;;1.60;1.50;;;;;;;15.27;100.00;98004.19;1223507;75;2982197;-64
2023/09/02 05:08:21;;;;;;;1.20;1.10;;;;;;;15.32;100.00;98013.69;1224769;75;2918890;-64
2023/09/02 05:10:53;;;;;;;1.35;1.05;;;;;;;15.42;100.00;98017.00;1224660;75;2916656;-67
2023/09/02 05:13:26;;;;;;;1.95;1.35;;;;;;;15.42;100.00;98019.75;1225505;75;2916276;-65
2023/09/02 05:15:58;;;;;;;2.10;1.40;;;;;;;15.44;100.00;98020.75;1224736;75;2918295;-67
2023/09/02 05:18:33;;;;;;;1.70;1.35;;;;;;;15.48;100.00;98018.47;1224613;75;2925471;-65
2023/09/02 05:21:06;;;;;;;1.30;1.20;;;;;;;15.47;100.00;98022.50;1225203;75;2920014;-65
2023/09/02 05:23:39;;;;;;;1.40;1.20;;;;;;;15.59;100.00;98020.50;1224611;75;2936040;-67
2023/09/02 05:26:11;;;;;;;1.65;1.15;;;;;;;15.61;100.00;98033.78;1224431;75;2925688;-64
2023/09/02 05:28:44;;;;;;;2.35;2.05;;;;;;;15.62;100.00;98033.28;1225786;75;2916619;-66
2023/09/02 05:31:16;;;;;;;2.10;1.90;;;;;;;15.77;100.00;98042.09;1224012;75;2918921;-68
2023/09/02 05:33:51;;;;;;;3.40;2.10;;;;;;;15.87;100.00;98044.63;1224692;75;2922184;-65
2023/09/02 05:36:24;;;;;;;2.10;1.90;;;;;;;15.89;100.00;98047.63;1224711;75;2926406;-66
2023/09/02 05:38:57;;;;;;;2.65;2.20;;;;;;;15.84;100.00;98042.88;1224031;75;2961688;-68
2023/09/02 05:41:29;;;;;;;2.10;1.90;;;;;;;16.02;100.00;98053.41;1224451;75;2919825;-66
2023/09/02 05:44:02;;;;;;;1.70;1.45;;;;;;;16.04;100.00;98053.63;1225466;75;2919704;-69
2023/09/02 05:46:35;;;;;;;1.80;1.70;;;;;;;16.12;100.00;98046.38;1225333;75;2919564;-64
2023/09/02 05:49:10;;;;;;;1.90;1.70;;;;;;;16.12;100.00;98054.66;1223577;75;2920398;-65
2023/09/02 05:51:43;;;;;;;2.15;1.95;;;;;;;16.15;100.00;98052.91;1225265;75;2912599;-65
2023/09/02 05:54:15;;;;;;;2.50;2.30;;;;;;;16.32;100.00;98050.09;1225280;75;2921525;-68
2023/09/02 05:56:51;;;;;;;8.60;6.30;;;;;;;16.47;100.00;98058.09;1224749;75;2919800;-67
2023/09/02 05:59:23;;;;;;;4.40;3.95;;;;;;;16.60;100.00;98050.03;1224480;75;2915614;-68
2023/09/02 06:01:58;;;;;;;3.75;3.05;;;;;;;16.59;100.00;98054.81;1225374;75;2918363;-67
2023/09/02 06:04:33;;;;;;;3.95;3.55;;;;;;;16.73;100.00;98058.53;1224753;75;2918739;-66
2023/09/02 06:07:06;;;;;;;2.35;2.15;;;;;;;16.97;100.00;98062.75;1225267;75;2918959;-66
2023/09/02 06:09:39;;;;;;;2.20;2.00;;;;;;;16.99;100.00;98060.22;1224790;75;2935203;-68
2023/09/02 06:12:11;;;;;;;13.05;9.90;;;;;;;17.11;100.00;98058.91;1224633;75;2920827;-67
2023/09/02 06:14:44;;;;;;;14.15;12.65;;;;;;;17.33;100.00;98065.59;1225176;75;2942070;-70
2023/09/02 06:17:16;;;;;;;7.70;6.90;;;;;;;17.28;100.00;98060.84;1224922;75;2919655;-67
2023/09/02 06:19:52;;;;;;;4.55;3.75;;;;;;;17.47;100.00;98061.75;1224892;75;2920638;-67
2023/09/02 06:22:24;;;;;;;5.50;3.40;;;;;;;17.61;100.00;98057.13;1225137;75;2920152;-68
2023/09/02 06:24:59;;;;;;;3.35;3.05;;;;;;;17.86;100.00;98061.47;1224085;75;2921126;-68
2023/09/02 06:27:34;;;;;;;3.85;3.20;;;;;;;17.99;100.00;98062.88;1224863;75;2919936;-66
2023/09/02 06:30:07;;;;;;;7.25;5.00;;;;;;;18.07;100.00;98063.84;1225352;75;2921679;-66
2023/09/02 06:32:40;;;;;;;4.45;3.85;;;;;;;18.32;100.00;98064.59;1225087;75;2915402;-65
2023/09/02 06:35:15;;;;;;;12.90;10.70;;;;;;;18.44;100.00;98066.00;1225064;75;2919467;-65
2023/09/02 06:37:48;;;;;;;8.75;6.45;;;;;;;18.68;100.00;98062.47;1224777;75;2922717;-67
2023/09/02 06:40:21;;;;;;;5.60;4.60;;;;;;;18.58;100.00;98064.09;1223281;75;2929978;-65
2023/09/02 06:42:53;;;;;;;5.45;4.10;;;;;;;18.52;100.00;98063.41;1223236;75;2917811;-67
2023/09/02 06:45:28;;;;;;;5.00;3.80;;;;;;;18.75;100.00;98066.69;1224800;75;2917452;-68
2023/09/02 06:48:00;;;;;;;4.50;3.70;;;;;;;18.96;100.00;98066.97;1224457;75;2922661;-67
2023/09/02 06:50:35;;;;;;;5.55;4.20;;;;;;;19.02;100.00;98070.41;1224677;75;2919271;-69
2023/09/02 06:53:08;;;;;;;6.25;5.10;;;;;;;19.28;100.00;98069.09;1224078;75;2923520;-66
2023/09/02 06:55:41;;;;;;;4.45;3.90;;;;;;;19.40;100.00;98072.47;1224886;75;2926814;-67
2023/09/02 06:58:13;;;;;;;4.10;3.65;;;;;;;19.49;100.00;98077.66;1225152;75;2929263;-67
2023/09/02 07:00:48;;;;;;;6.45;5.35;;;;;;;19.44;100.00;98078.47;1225062;75;2923403;-67
2023/09/02 07:03:20;;;;;;;42.70;37.50;;;;;;;19.59;100.00;98076.72;1224103;75;2927586;-67
2023/09/02 07:05:57;;;;;;;11.40;10.15;;;;;;;20.06;100.00;98083.88;1210492;75;3937436;-66
2023/09/02 07:08:30;;;;;;;10.15;8.15;;;;;;;20.18;100.00;98082.41;1224996;75;2921689;-68
2023/09/02 07:11:02;;;;;;;8.45;6.85;;;;;;;20.17;100.00;98086.44;1226040;75;2915908;-66
2023/09/02 07:13:35;;;;;;;5.00;4.25;;;;;;;20.39;100.00;98085.31;1224811;75;2919843;-66
2023/09/02 07:16:09;;;;;;;4.35;3.95;;;;;;;20.41;100.00;98085.53;1225530;75;2920982;-64
2023/09/02 07:18:41;;;;;;;3.90;3.40;;;;;;;20.56;100.00;98084.28;1224934;75;2914034;-67
2023/09/02 07:21:21;;;;;;;3.90;3.50;;;;;;;20.86;100.00;98086.75;1225999;75;2913162;-70
2023/09/02 07:23:54;;;;;;;5.00;3.55;;;;;;;20.95;100.00;98091.13;1225172;75;2914319;-67
2023/09/02 07:26:29;;;;;;;8.30;4.30;;;;;;;20.84;100.00;98086.53;1225505;75;2918146;-66
2023/09/02 07:29:01;;;;;;;4.80;3.50;;;;;;;20.78;100.00;98085.91;1225850;75;2910471;-68
2023/09/02 07:31:34;;;;;;;3.90;3.50;;;;;;;21.26;100.00;98084.69;1225172;75;2918080;-69
2023/09/02 07:34:06;;;;;;;4.45;3.50;;;;;;;21.37;100.00;98082.94;1225264;75;2915357;-68
2023/09/02 07:36:42;;;;;;;3.60;2.95;;;;;;;21.58;100.00;98088.59;1221107;75;3092186;-66
2023/09/02 07:39:16;;;;;;;3.45;3.15;;;;;;;21.65;100.00;98094.25;1224865;75;2917326;-66
2023/09/02 07:41:50;;;;;;;3.55;2.95;;;;;;;21.90;100.00;98093.91;1224197;75;2919476;-65
2023/09/02 07:44:22;;;;;;;3.50;2.70;;;;;;;21.97;100.00;98096.03;1225113;75;2917097;-64
2023/09/02 07:46:55;;;;;;;4.00;3.40;;;;;;;21.62;100.00;98098.13;1224984;75;2910177;-67
2023/09/02 07:49:27;;;;;;;5.55;3.45;;;;;;;22.01;100.00;98095.69;1225117;75;2919945;-66
2023/09/02 07:52:03;;;;;;;3.70;3.15;;;;;;;22.03;100.00;98101.47;1224744;75;2916742;-67
2023/09/02 07:54:35;;;;;;;5.15;3.40;;;;;;;22.15;100.00;98099.16;1224535;75;2922232;-66
2023/09/02 07:57:08;;;;;;;4.20;3.35;;;;;;;21.98;100.00;98096.78;1224180;75;2918365;-65
2023/09/02 07:59:40;;;;;;;3.90;3.45;;;;;;;22.45;100.00;98096.63;1224142;75;2928604;-68
2023/09/02 08:02:13;;;;;;;3.50;2.80;;;;;;;22.42;96.63;98103.31;1224947;75;2922373;-68
2023/09/02 08:04:45;;;;;;;6.50;3.35;;;;;;;22.35;96.01;98098.44;1225077;75;2918716;-66
2023/09/02 08:07:21;;;;;;;4.05;3.20;;;;;;;22.50;97.01;98100.56;1224838;75;2921007;-66
2023/09/02 08:09:54;;;;;;;5.15;4.25;;;;;;;22.87;94.83;98104.16;1225126;75;2921716;-65
2023/09/02 08:12:27;;;;;;;15.80;13.50;;;;;;;22.93;93.90;98102.69;1225380;75;2943751;-67
2023/09/02 08:15:00;;;;;;;13.35;10.50;;;;;;;23.34;89.65;98103.84;1225456;75;2916673;-64
2023/09/02 08:17:32;;;;;;;5.60;4.05;;;;;;;23.46;89.39;98107.06;1225060;75;2931601;-68
2023/09/02 08:20:05;;;;;;;2.60;2.20;;;;;;;23.65;86.71;98111.59;1225352;75;2919469;-66
2023/09/02 08:22:43;;;;;;;3.40;2.60;;;;;;;23.24;93.03;98114.06;1224223;75;2938554;-67
2023/09/02 08:25:15;;;;;;;4.00;2.80;;;;;;;23.32;92.96;98119.66;1224820;75;2922588;-67
2023/09/02 08:27:48;;;;;;;3.75;2.65;;;;;;;23.15;92.49;98106.94;1224280;75;2922012;-66
2023/09/02 08:30:21;;;;;;;2.65;2.25;;;;;;;23.68;88.33;98114.00;1223968;75;2919466;-65
2023/09/02 08:32:54;;;;;;;3.55;2.35;;;;;;;23.58;91.35;98108.22;1225366;75;2921116;-64
2023/09/02 08:35:27;;;;;;;6.20;2.65;;;;;;;23.88;88.61;98114.47;1224953;75;2918875;-68
2023/09/02 08:38:02;;;;;;;3.60;2.40;;;;;;;24.17;90.90;98115.81;1224909;75;2918988;-64
2023/09/02 08:40:35;;;;;;;3.55;2.60;;;;;;;24.39;84.75;98110.75;1225312;75;2927210;-67
2023/09/02 08:43:08;;;;;;;2.95;2.30;;;;;;;24.23;84.75;98105.16;1225133;75;2920859;-68
2023/09/02 08:45:44;;;;;;;3.00;2.30;;;;;;;24.32;80.87;98115.06;1225315;75;2921071;-68
2023/09/02 08:48:25;;;;;;;2.95;2.00;;;;;;;24.75;79.53;98115.41;1224104;75;2924830;-67
2023/09/02 08:50:59;;;;;;;4.50;3.30;;;;;;;24.70;76.88;98119.16;1225215;75;2916959;-67
2023/09/02 08:53:35;;;;;;;4.80;4.30;;;;;;;25.19;76.54;98118.69;1224352;75;2920400;-69
2023/09/02 08:56:10;;;;;;;4.55;3.70;;;;;;;25.35;75.20;98119.41;1225129;75;2924939;-69
2023/09/02 08:58:43;;;;;;;4.10;2.80;;;;;;;25.70;70.79;98125.19;1225415;75;2919050;-69
2023/09/02 09:01:22;;;;;;;2.30;2.10;;;;;;;25.24;72.33;98112.13;1225528;75;2921096;-69
2023/09/02 09:03:58;;;;;;;3.40;2.90;;;;;;;25.40;68.46;98106.47;1225140;75;2922955;-68
2023/09/02 09:06:31;;;;;;;4.75;2.95;;;;;;;25.65;70.11;98110.09;1224067;75;2929574;-66
2023/09/02 09:09:10;;;;;;;2.60;2.30;;;;;;;25.59;71.84;98115.19;1225087;75;2916765;-69
2023/09/02 09:11:46;;;;;;;2.20;1.60;;;;;;;25.20;72.58;98114.56;1225996;75;2922052;-67
2023/09/02 09:14:24;;;;;;;2.75;1.65;;;;;;;26.48;67.91;98112.91;1225794;75;2922474;-70
2023/09/02 09:16:58;;;;;;;3.50;2.95;;;;;;;26.79;70.04;98112.63;1224866;75;2917323;-70
2023/09/02 09:19:32;;;;;;;3.25;2.20;;;;;;;26.12;67.33;98108.50;1225159;75;2924393;-70
2023/09/02 09:22:05;;;;;;;3.20;1.60;;;;;;;26.35;69.12;98118.78;1225222;75;2929454;-66
2023/09/02 09:24:40;;;;;;;2.00;1.80;;;;;;;26.33;68.95;98113.00;1225235;75;2921318;-68
2023/09/02 09:27:13;;;;;;;3.15;1.55;;;;;;;26.87;66.83;98112.56;1224918;75;2919056;-68
2023/09/02 09:29:46;;;;;;;2.15;1.60;;;;;;;27.65;65.56;98113.88;1225015;75;2919923;-69
2023/09/02 09:32:22;;;;;;;1.70;1.50;;;;;;;27.97;63.79;98110.09;1224199;75;2949935;-69
2023/09/02 09:34:54;;;;;;;2.75;1.75;;;;;;;27.04;65.24;98109.00;1225530;75;2905380;-69
2023/09/02 09:37:27;;;;;;;2.50;1.85;;;;;;;27.36;65.07;98108.06;1224979;75;2920803;-69
2023/09/02 09:40:02;;;;;;;2.25;1.60;;;;;;;27.57;64.55;98105.56;1225010;75;2918979;-69
2023/09/02 09:42:38;;;;;;;1.85;1.40;;;;;;;27.35;64.65;98098.16;1224804;75;2922803;-68
2023/09/02 09:45:12;;;;;;;1.50;1.40;;;;;;;27.55;62.79;98096.94;1224671;75;2923933;-68
2023/09/02 09:47:44;;;;;;;2.15;1.50;;;;;;;27.55;62.85;98096.94;1224679;75;2917209;-71
2023/09/02 09:50:19;;;;;;;2.85;1.55;;;;;;;27.89;62.01;98100.25;1224547;75;2916190;-68
2023/09/02 09:53:10;;;;;;;1.95;1.40;;;;;;;28.29;61.00;98097.00;1225581;75;2923398;-68
2023/09/02 09:55:46;;;;;;;1.35;1.25;;;;;;;28.73;59.06;98093.25;1225311;75;2923578;-67
2023/09/02 09:58:26;;;;;;;1.90;1.50;;;;;;;28.28;59.61;98098.31;1224574;75;2916802;-69
2023/09/02 10:00:59;;;;;;;1.85;1.30;;;;;;;28.16;61.64;98089.69;1224976;75;2923159;-69
2023/09/02 10:03:35;;;;;;;1.85;1.10;;;;;;;28.33;60.54;98094.50;1224083;75;2916576;-68
2023/09/02 10:06:08;;;;;;;1.85;1.60;;;;;;;28.91;57.14;98104.41;1224433;75;2925222;-69
2023/09/02 10:08:59;;;;;;;1.30;1.10;;;;;;;29.40;56.74;98102.34;1224997;75;2920549;-67
2023/09/02 10:11:35;;;;;;;1.85;1.15;;;;;;;29.30;57.60;98103.09;1225793;75;2924927;-68
2023/09/02 10:14:09;;;;;;;1.50;1.05;;;;;;;30.47;54.14;98096.31;1224124;75;2918666;-67
2023/09/02 10:16:44;;;;;;;2.15;1.05;;;;;;;29.38;55.51;98100.09;1225563;75;2926982;-68
2023/09/02 10:19:18;;;;;;;2.15;1.30;;;;;;;29.16;57.09;98095.69;1224472;75;2925092;-69
2023/09/02 10:21:50;;;;;;;1.90;1.10;;;;;;;28.79;58.20;98099.38;1224726;75;2920832;-67
2023/09/02 10:24:23;;;;;;;2.50;1.35;;;;;;;29.04;57.13;98093.44;1224859;75;2913501;-67
2023/09/02 10:27:01;;;;;;;1.20;1.00;;;;;;;29.55;55.61;98092.78;1224771;75;2922300;-67
2023/09/02 10:29:40;;;;;;;1.40;1.00;;;;;;;29.90;54.47;98096.72;1225480;75;2921493;-69
2023/09/02 10:32:15;;;;;;;1.45;1.10;;;;;;;28.92;55.15;98094.63;1225305;75;2916252;-67
2023/09/02 10:34:57;;;;;;;3.10;1.50;;;;;;;28.85;56.31;98099.06;1224759;75;2925253;-70
2023/09/02 10:37:41;;;;;;;1.25;1.00;;;;;;;30.47;54.76;98087.84;1224938;75;2922159;-67
2023/09/02 10:40:18;;;;;;;2.00;1.50;;;;;;;29.25;56.22;98092.13;1225248;75;2924458;-68
2023/09/02 10:42:58;;;;;;;1.85;1.05;;;;;;;28.91;58.08;98095.94;1225256;75;2919871;-67
2023/09/02 10:45:31;;;;;;;1.55;1.20;;;;;;;28.97;57.32;98093.59;1224691;75;2923503;-71
2023/09/02 10:48:04;;;;;;;4.85;4.25;;;;;;;30.06;55.28;98091.44;1225736;75;2901596;-67
2023/09/02 10:50:37;;;;;;;2.80;2.50;;;;;;;30.90;51.52;98091.44;1224606;75;2930724;-70
2023/09/02 10:53:10;;;;;;;5.10;3.50;;;;;;;31.07;51.96;98092.50;1224535;75;2928526;-68
2023/09/02 10:56:02;;;;;;;2.95;2.35;;;;;;;30.78;53.47;98087.78;1225286;75;2923649;-69
2023/09/02 10:58:54;;;;;;;3.55;1.60;;;;;;;30.37;54.70;98085.09;1224297;75;2926536;-70
2023/09/02 11:01:29;;;;;;;1.40;1.05;;;;;;;30.52;53.86;98090.38;1223953;75;2928561;-67
2023/09/02 11:04:01;;;;;;;1.60;1.05;;;;;;;30.46;53.29;98092.75;1224264;75;2935642;-69
2023/09/02 11:06:34;;;;;;;3.10;1.10;;;;;;;30.01;54.23;98088.97;1225268;75;2915578;-70
2023/09/02 11:09:07;;;;;;;1.50;1.25;;;;;;;30.28;53.05;98083.81;1224468;75;2921228;-69
2023/09/02 11:12:11;;;;;;;1.55;1.10;;;;;;;29.99;54.41;98083.91;1224357;75;2915925;-67
2023/09/02 11:15:19;;;;;;;4.05;1.35;;;;;;;29.93;53.29;98091.97;1224450;75;2923423;-68
2023/09/02 11:17:52;;;;;;;;;;;;;;;31.32;50.50;98078.56;1225604;75;2922763;-69
2023/09/02 11:20:26;;;;;;;1.40;1.00;;;;;;;30.46;52.15;98089.94;1224797;75;2914598;-67
2023/09/02 11:23:02;;;;;;;3.75;1.40;;;;;;;30.30;51.67;98083.19;1224320;75;2922543;-68
2023/09/02 11:25:38;;;;;;;1.50;0.95;;;;;;;31.29;48.80;98085.44;1225088;75;2921426;-68
2023/09/02 11:28:12;;;;;;;1.55;0.85;;;;;;;32.02;48.09;98074.44;1225062;75;2920967;-70
2023/09/02 11:31:10;;;;;;;0.95;0.75;;;;;;;32.62;46.92;98075.88;1225185;75;2910792;-68
2023/09/02 11:33:49;;;;;;;0.90;0.90;;;;;;;31.84;49.51;98076.84;1222898;75;2937389;-71
2023/09/02 11:36:22;;;;;;;2.90;0.90;;;;;;;30.84;48.91;98076.91;1224820;75;2920070;-67
2023/09/02 11:38:59;;;;;;;1.00;0.80;;;;;;;31.62;47.71;98082.59;1224409;75;2921236;-66
2023/09/02 11:41:31;;;;;;;1.05;0.80;;;;;;;32.18;45.42;98077.47;1225411;75;2919721;-69
2023/09/02 11:44:13;;;;;;;0.80;0.80;;;;;;;33.29;45.14;98081.81;1224586;75;2917506;-68
2023/09/02 11:46:48;;;;;;;0.60;0.60;;;;;;;34.00;43.10;98075.66;1224354;75;2926441;-69
2023/09/02 11:49:26;;;;;;;1.00;0.90;;;;;;;33.92;43.67;98076.72;1224560;75;2925496;-70